Time;durP1;ratioP1;P1;durP2;ratioP2;P2;SDS_P1;SDS_P2;PMS_P1;PMS_P2;Temp;Humidity;BMP_temperature;BMP_pressure;BME280_temperature;BME280_humidity;BME280_pressure;Samples;Min_cycle;Max_cycle;Signal;HPM_P1;HPM_P2
2022/03/12 00:00:07;;;;;;;13.80;6.20;;;6.10;72.00;;;;;;4937244;29;20047;-91
2022/03/12 00:02:34;;;;;;;12.83;5.87;;;6.10;71.90;;;;;;4937615;29;20082;-91
2022/03/12 00:05:00;;;;;;;12.07;5.60;;;6.10;72.00;;;;;;4936566;29;20054;-91
2022/03/12 00:07:27;;;;;;;11.80;5.63;;;6.10;72.10;;;;;;4919596;29;20130;-90
2022/03/12 00:09:54;;;;;;;12.80;5.90;;;6.10;72.00;;;;;;4919671;29;20079;-90
2022/03/12 00:12:20;;;;;;;12.63;6.13;;;6.10;72.00;;;;;;4919053;29;20039;-91
2022/03/12 00:14:47;;;;;;;13.33;5.87;;;6.10;71.90;;;;;;4920302;29;20051;-91
2022/03/12 00:17:13;;;;;;;13.90;5.93;;;6.00;72.00;;;;;;4936057;29;20051;-92
2022/03/12 00:19:41;;;;;;;13.33;5.80;;;6.00;72.00;;;;;;4918633;29;20134;-91
2022/03/12 00:22:08;;;;;;;13.57;6.17;;;6.00;72.20;;;;;;4920265;29;20467;-91
2022/03/12 00:24:34;;;;;;;12.30;5.87;;;5.90;72.20;;;;;;4935881;29;20062;-90
2022/03/12 00:27:01;;;;;;;13.00;6.00;;;5.90;72.30;;;;;;4919527;29;20048;-91
2022/03/12 00:29:27;;;;;;;14.83;6.30;;;5.80;72.30;;;;;;4919791;29;20130;-91
2022/03/12 00:31:54;;;;;;;16.80;6.20;;;5.80;72.50;;;;;;4918709;29;20484;-91
2022/03/12 00:34:20;;;;;;;13.73;6.50;;;5.70;72.60;;;;;;4918500;29;20059;-91
2022/03/12 00:36:46;;;;;;;12.20;5.70;;;5.70;72.50;;;;;;4918940;29;20091;-91
2022/03/12 00:39:13;;;;;;;14.33;6.20;;;5.70;72.70;;;;;;4917999;29;20044;-91
2022/03/12 00:41:42;;;;;;;13.07;6.00;;;5.60;72.80;;;;;;4919070;29;20070;-91
2022/03/12 00:44:09;;;;;;;13.87;5.83;;;5.60;73.10;;;;;;4918765;29;20044;-90
2022/03/12 00:46:34;;;;;;;18.67;6.20;;;5.60;73.20;;;;;;4918822;29;20142;-91
2022/03/12 00:49:00;;;;;;;14.90;6.17;;;5.50;73.30;;;;;;4919089;29;20080;-91
2022/03/12 00:51:25;;;;;;;15.30;5.97;;;5.50;73.30;;;;;;4918864;29;20071;-91
2022/03/12 00:53:51;;;;;;;14.77;6.30;;;5.50;73.50;;;;;;4938916;29;20043;-91
2022/03/12 00:56:16;;;;;;;13.50;6.10;;;5.50;73.50;;;;;;4937256;29;20574;-91
2022/03/12 00:58:45;;;;;;;12.03;5.37;;;5.50;73.60;;;;;;4920726;29;20524;-91
2022/03/12 01:01:11;;;;;;;11.87;5.50;;;5.50;73.70;;;;;;4917714;29;20047;-91
2022/03/12 01:03:37;;;;;;;12.47;5.90;;;5.50;73.60;;;;;;4918847;29;20047;-91
2022/03/12 01:06:04;;;;;;;12.73;6.17;;;5.50;73.90;;;;;;4918718;29;20443;-91
2022/03/12 01:08:31;;;;;;;17.83;6.20;;;5.50;73.90;;;;;;4935136;29;20160;-91
2022/03/12 01:10:59;;;;;;;13.20;6.27;;;5.50;74.20;;;;;;4918754;29;20484;-91
2022/03/12 01:13:26;;;;;;;12.63;5.63;;;5.40;74.30;;;;;;4934793;29;20516;-90
2022/03/12 01:15:52;;;;;;;12.63;5.70;;;5.40;74.30;;;;;;4935849;29;20126;-92
2022/03/12 01:18:20;;;;;;;11.97;5.70;;;5.40;74.30;;;;;;4935293;29;20563;-90
2022/03/12 01:20:47;;;;;;;11.97;5.80;;;5.40;74.30;;;;;;4918530;29;20095;-91
2022/03/12 01:23:15;;;;;;;11.87;5.60;;;5.40;74.40;;;;;;4919454;29;20099;-90
2022/03/12 01:25:42;;;;;;;14.93;6.03;;;5.50;74.40;;;;;;4919419;29;20399;-91
2022/03/12 01:28:09;;;;;;;13.43;6.07;;;5.50;74.40;;;;;;4934847;29;20079;-91
2022/03/12 01:30:35;;;;;;;12.70;5.47;;;5.50;74.60;;;;;;4920960;29;20616;-90
2022/03/12 01:33:00;;;;;;;13.60;6.37;;;5.50;74.50;;;;;;4922087;29;20054;-91
2022/03/12 01:35:26;;;;;;;13.70;6.53;;;5.40;74.40;;;;;;4921273;29;20135;-91
2022/03/12 01:37:52;;;;;;;12.17;5.87;;;5.40;74.60;;;;;;4929364;29;20078;-90
2022/03/12 01:40:19;;;;;;;11.50;5.47;;;5.40;74.80;;;;;;4941221;29;20074;-91
2022/03/12 01:42:44;;;;;;;14.47;6.00;;;5.40;74.90;;;;;;4921568;29;20047;-90
2022/03/12 01:45:12;;;;;;;11.37;5.57;;;5.40;74.80;;;;;;4938954;29;20067;-91
2022/03/12 01:47:38;;;;;;;12.20;5.87;;;5.30;74.90;;;;;;4921865;29;20050;-91
2022/03/12 01:50:05;;;;;;;13.07;5.60;;;5.30;74.90;;;;;;4921291;29;20440;-91
2022/03/12 01:52:31;;;;;;;15.37;6.20;;;5.40;74.80;;;;;;4921995;29;20054;-90
2022/03/12 01:54:57;;;;;;;15.23;6.40;;;5.30;75.00;;;;;;4922008;29;20051;-91
2022/03/12 01:57:23;;;;;;;13.37;6.30;;;5.30;75.10;;;;;;4938277;29;20058;-91
2022/03/12 01:59:49;;;;;;;12.90;5.70;;;5.30;75.30;;;;;;4922217;29;20047;-91
2022/03/12 02:02:15;;;;;;;15.17;5.83;;;5.30;75.30;;;;;;4922862;29;20051;-91
2022/03/12 02:04:51;;;;;;;15.83;5.93;;;5.40;75.30;;;;;;4921298;29;20050;-91
2022/03/12 02:07:18;;;;;;;12.53;5.80;;;5.40;75.20;;;;;;4921556;29;20047;-91
2022/03/12 02:09:44;;;;;;;13.30;5.50;;;5.40;75.00;;;;;;4922324;29;20072;-91
2022/03/12 02:12:11;;;;;;;12.67;5.93;;;5.40;75.00;;;;;;4921729;29;20040;-91
2022/03/12 02:14:37;;;;;;;15.30;6.50;;;5.40;75.00;;;;;;4938797;29;20048;-91
2022/03/12 02:17:10;;;;;;;12.30;5.77;;;5.40;75.10;;;;;;4938288;29;20099;-91
2022/03/12 02:19:39;;;;;;;15.13;5.88;;;5.40;75.20;;;;;;4923363;29;20098;-91
2022/03/12 02:22:13;;;;;;;14.47;5.77;;;5.40;75.30;;;;;;4923139;29;20048;-91
2022/03/12 02:24:39;;;;;;;13.05;5.47;;;5.40;75.30;;;;;;4938900;29;20055;-91
2022/03/12 02:27:08;;;;;;;11.50;5.97;;;5.30;75.30;;;;;;4921466;29;20044;-91
2022/03/12 02:29:34;;;;;;;12.83;5.70;;;5.30;75.40;;;;;;4921609;29;20052;-91
2022/03/12 02:32:03;;;;;;;11.83;6.03;;;5.30;75.30;;;;;;4920699;29;20047;-91
2022/03/12 02:34:50;;;;;;;12.90;5.90;;;5.30;75.40;;;;;;4938310;29;20127;-91
2022/03/12 02:37:25;;;;;;;15.50;6.20;;;5.30;75.60;;;;;;4920974;29;20066;-91
2022/03/12 02:39:51;;;;;;;13.17;6.23;;;5.30;75.60;;;;;;4921056;29;20122;-91
2022/03/12 02:42:20;;;;;;;13.93;6.60;;;5.20;75.90;;;;;;4937304;29;20483;-91
2022/03/12 02:44:48;;;;;;;12.33;5.57;;;5.20;75.80;;;;;;4921869;29;20067;-90
2022/03/12 02:47:16;;;;;;;13.33;6.13;;;5.20;76.00;;;;;;4921414;29;20039;-91
2022/03/12 02:49:42;;;;;;;13.00;6.20;;;5.20;76.20;;;;;;4938436;29;20046;-91
2022/03/12 02:52:08;;;;;;;12.43;6.63;;;5.10;76.30;;;;;;4919689;29;20044;-91
2022/03/12 02:54:34;;;;;;;13.23;6.23;;;5.10;76.60;;;;;;4921181;29;20114;-91
2022/03/12 02:57:01;;;;;;;14.40;6.23;;;5.00;76.70;;;;;;4920919;29;20083;-91
2022/03/12 02:59:27;;;;;;;13.37;6.17;;;5.10;76.70;;;;;;4919822;29;20083;-91
2022/03/12 03:01:57;;;;;;;15.13;6.23;;;5.00;76.60;;;;;;4936793;29;20071;-91
2022/03/12 03:04:23;;;;;;;13.80;6.37;;;5.00;76.80;;;;;;4921555;29;20052;-91
2022/03/12 03:06:49;;;;;;;14.03;6.17;;;5.00;77.00;;;;;;4919613;29;20559;-91
2022/03/12 03:09:14;;;;;;;15.90;6.27;;;5.10;77.10;;;;;;4920330;29;20047;-92
2022/03/12 03:11:40;;;;;;;12.40;5.90;;;5.10;77.10;;;;;;4920744;29;20047;-91
2022/03/12 03:14:10;;;;;;;12.20;6.10;;;5.10;76.90;;;;;;4919506;29;20044;-91
2022/03/12 03:16:36;;;;;;;13.87;6.03;;;5.10;77.30;;;;;;4920551;29;20062;-92
2022/03/12 03:19:02;;;;;;;13.97;5.80;;;5.10;77.10;;;;;;4921039;29;20039;-91
2022/03/12 03:21:28;;;;;;;12.33;6.37;;;5.10;77.10;;;;;;4919785;29;20495;-92
2022/03/12 03:23:54;;;;;;;14.57;6.27;;;5.10;77.20;;;;;;4920581;29;20135;-91
2022/03/12 03:26:38;;;;;;;12.77;5.70;;;5.10;77.30;;;;;;4937426;29;20095;-90
2022/03/12 03:29:05;;;;;;;13.52;6.10;;;5.10;77.40;;;;;;4938071;29;20048;-91
2022/03/12 03:31:31;;;;;;;12.07;5.67;;;5.10;77.40;;;;;;4920276;29;20051;-91
2022/03/12 03:33:56;;;;;;;12.60;5.80;;;5.10;77.30;;;;;;4920137;29;20408;-91
2022/03/12 03:36:22;;;;;;;13.03;5.93;;;5.10;77.10;;;;;;4936517;29;20547;-91
2022/03/12 03:38:47;;;;;;;12.50;6.17;;;5.10;77.10;;;;;;4920458;29;20484;-90
2022/03/12 03:41:13;;;;;;;13.83;6.10;;;5.10;77.20;;;;;;4919404;29;20051;-91
2022/03/12 03:43:43;;;;;;;13.90;5.93;;;5.00;77.50;;;;;;4922875;29;20048;-90
2022/03/12 03:46:09;;;;;;;14.13;5.83;;;5.10;77.40;;;;;;4938897;29;20420;-91
2022/03/12 03:48:38;;;;;;;13.03;6.10;;;5.00;77.60;;;;;;4905573;29;20039;-91
2022/03/12 03:51:04;;;;;;;15.40;5.90;;;5.00;77.70;;;;;;4920002;29;20043;-91
2022/03/12 03:53:29;;;;;;;12.00;5.70;;;5.00;77.70;;;;;;4937099;29;20496;-91
2022/03/12 03:55:57;;;;;;;11.97;5.77;;;4.90;77.80;;;;;;4919031;29;20102;-90
2022/03/12 03:58:24;;;;;;;12.00;5.50;;;4.90;77.70;;;;;;4920106;29;20051;-91
2022/03/12 04:00:57;;;;;;;12.57;6.07;;;4.90;77.80;;;;;;4937072;29;20051;-91
2022/03/12 04:03:24;;;;;;;15.20;5.87;;;4.90;77.80;;;;;;4936332;29;20353;-90
2022/03/12 04:05:50;;;;;;;13.00;5.80;;;4.90;77.80;;;;;;4919918;29;20055;-91
2022/03/12 04:08:16;;;;;;;14.50;6.00;;;4.80;77.90;;;;;;4919573;29;20489;-90
2022/03/12 04:10:42;;;;;;;12.13;5.60;;;4.80;78.00;;;;;;4919251;29;20044;-91
2022/03/12 04:13:21;;;;;;;12.77;6.13;;;4.80;78.00;;;;;;4919229;29;20110;-91
2022/03/12 04:15:49;;;;;;;12.87;6.13;;;4.80;77.90;;;;;;4919632;29;20051;-91
2022/03/12 04:18:15;;;;;;;16.43;6.10;;;4.80;78.00;;;;;;4918595;29;20400;-91
2022/03/12 04:20:47;;;;;;;12.60;5.73;;;4.80;78.00;;;;;;4919489;29;20074;-90
2022/03/12 04:23:16;;;;;;;13.33;5.90;;;4.70;77.90;;;;;;4936301;29;20099;-91
2022/03/12 04:25:42;;;;;;;12.67;5.43;;;4.70;78.00;;;;;;4919093;29;20047;-91
2022/03/12 04:28:09;;;;;;;14.93;5.73;;;4.60;78.00;;;;;;4919531;29;20047;-90
2022/03/12 04:30:35;;;;;;;15.57;5.70;;;4.60;78.20;;;;;;4919045;29;20057;-91
2022/03/12 04:33:00;;;;;;;12.60;6.17;;;4.60;78.20;;;;;;4919409;29;20067;-91
2022/03/12 04:35:26;;;;;;;11.87;5.70;;;4.50;78.30;;;;;;4918863;29;20056;-91
2022/03/12 04:37:52;;;;;;;12.67;5.97;;;4.50;78.40;;;;;;4918577;29;20043;-91
2022/03/12 04:40:23;;;;;;;13.23;6.00;;;4.50;78.40;;;;;;4919027;29;20134;-91
2022/03/12 04:42:50;;;;;;;14.07;5.70;;;4.40;78.30;;;;;;4919090;29;20098;-91
2022/03/12 04:45:20;;;;;;;12.67;6.10;;;4.40;78.50;;;;;;4918115;29;20480;-90
2022/03/12 04:47:48;;;;;;;13.53;5.70;;;4.40;78.30;;;;;;4919182;29;20055;-91
2022/03/12 04:50:16;;;;;;;13.20;5.80;;;4.50;78.30;;;;;;4935943;29;20040;-90
2022/03/12 04:52:48;;;;;;;14.23;5.67;;;4.50;78.30;;;;;;4918270;29;20055;-91
2022/03/12 04:55:19;;;;;;;14.83;5.83;;;4.50;78.30;;;;;;4918107;29;20484;-90
2022/03/12 04:57:46;;;;;;;11.97;5.53;;;4.50;78.30;;;;;;4918677;29;20048;-91
2022/03/12 05:00:25;;;;;;;15.47;5.77;;;4.40;78.20;;;;;;4933693;29;20067;-91
2022/03/12 05:03:03;;;;;;;12.50;5.60;;;4.40;78.30;;;;;;4890890;29;20513;-90
2022/03/12 05:05:29;;;;;;;13.33;5.50;;;4.30;78.40;;;;;;4915355;29;20052;-90
2022/03/12 05:07:58;;;;;;;11.47;5.80;;;4.30;78.40;;;;;;4900164;29;20080;-91
2022/03/12 05:10:26;;;;;;;13.10;5.77;;;4.20;78.60;;;;;;4919516;29;20143;-91
2022/03/12 05:12:57;;;;;;;12.20;5.57;;;4.10;78.70;;;;;;4901496;29;20036;-91
2022/03/12 05:15:23;;;;;;;11.97;5.50;;;3.70;78.70;;;;;;4899329;29;20050;-91
2022/03/12 05:17:49;;;;;;;13.13;5.47;;;5.00;79.50;;;;;;4899759;29;20056;-92
2022/03/12 05:20:21;;;;;;;12.57;5.50;;;4.00;79.80;;;;;;4916523;29;20101;-91
2022/03/12 05:22:48;;;;;;;12.90;5.40;;;3.90;79.40;;;;;;4899733;29;20501;-91
2022/03/12 05:25:15;;;;;;;14.10;5.47;;;3.90;79.50;;;;;;4899467;29;20048;-91
2022/03/12 05:27:41;;;;;;;12.63;6.00;;;3.90;79.60;;;;;;4898955;29;20126;-91
2022/03/12 05:30:08;;;;;;;11.83;5.13;;;3.90;79.70;;;;;;4899051;29;20044;-92
2022/03/12 05:32:33;;;;;;;13.83;5.60;;;3.80;80.00;;;;;;4899463;29;20044;-90
2022/03/12 05:34:59;;;;;;;12.47;5.90;;;3.80;80.10;;;;;;4898970;29;20075;-91
2022/03/12 05:37:24;;;;;;;13.33;5.70;;;3.70;80.50;;;;;;4900599;29;20056;-91
2022/03/12 05:39:51;;;;;;;11.73;5.50;;;3.70;80.60;;;;;;4899986;29;20051;-90
2022/03/12 05:42:20;;;;;;;15.03;5.07;;;3.60;80.90;;;;;;4915681;29;20445;-91
2022/03/12 05:44:46;;;;;;;12.83;5.30;;;3.60;81.30;;;;;;4916012;29;20092;-92
2022/03/12 05:47:11;;;;;;;13.93;5.60;;;3.60;81.30;;;;;;4899122;29;20436;-91
2022/03/12 05:49:37;;;;;;;12.60;5.70;;;3.50;81.40;;;;;;4916111;29;20079;-90
2022/03/12 05:52:03;;;;;;;12.73;5.67;;;3.50;81.60;;;;;;4899314;29;20044;-91
2022/03/12 05:54:29;;;;;;;10.90;5.00;;;3.40;81.80;;;;;;4917362;29;20095;-91
2022/03/12 05:56:56;;;;;;;14.37;5.80;;;3.40;82.20;;;;;;4898709;29;20044;-91
2022/03/12 05:59:22;;;;;;;11.83;5.07;;;3.40;82.30;;;;;;4916108;29;20080;-91
2022/03/12 06:01:50;;;;;;;12.17;5.30;;;3.40;82.40;;;;;;4923313;29;20153;-90
2022/03/12 06:04:19;;;;;;;12.57;5.77;;;3.40;82.70;;;;;;4904785;29;20055;-91
2022/03/12 06:06:46;;;;;;;11.57;5.37;;;3.40;83.00;;;;;;4899166;29;20436;-92
2022/03/12 06:09:12;;;;;;;15.60;6.10;;;3.40;83.20;;;;;;4898123;29;20412;-92
2022/03/12 06:11:38;;;;;;;13.00;5.20;;;3.50;83.50;;;;;;4917080;29;20063;-90
2022/03/12 06:14:04;;;;;;;11.80;5.47;;;3.50;83.70;;;;;;4899279;29;20472;-91
2022/03/12 06:16:31;;;;;;;13.90;5.50;;;3.60;83.70;;;;;;4899511;29;20055;-91
2022/03/12 06:18:57;;;;;;;13.63;5.63;;;3.60;83.90;;;;;;4903124;29;20123;-92
2022/03/12 06:21:23;;;;;;;13.13;5.83;;;3.70;84.10;;;;;;4902645;29;20105;-91
2022/03/12 06:23:49;;;;;;;12.10;5.20;;;3.80;84.00;;;;;;4919839;29;20059;-91
2022/03/12 06:26:16;;;;;;;12.33;5.83;;;3.90;84.10;;;;;;4902739;29;20059;-91
2022/03/12 06:28:43;;;;;;;12.97;5.47;;;4.00;84.30;;;;;;4903082;29;20119;-90
2022/03/12 06:31:11;;;;;;;13.90;5.50;;;4.00;84.10;;;;;;4902658;29;20056;-91
2022/03/12 06:33:37;;;;;;;13.00;5.53;;;4.10;84.00;;;;;;4920055;29;20084;-91
2022/03/12 06:36:02;;;;;;;10.87;5.23;;;4.10;84.20;;;;;;4903956;29;20480;-91
2022/03/12 06:38:30;;;;;;;12.13;5.53;;;4.20;84.20;;;;;;4921827;29;20040;-92
2022/03/12 06:40:58;;;;;;;12.60;5.60;;;4.20;84.20;;;;;;4902690;29;20503;-91
2022/03/12 06:43:28;;;;;;;12.40;5.70;;;4.30;84.20;;;;;;4919176;29;20055;-91
2022/03/12 06:45:58;;;;;;;12.33;5.57;;;4.30;84.10;;;;;;4919320;29;20044;-91
2022/03/12 06:48:25;;;;;;;12.13;5.87;;;4.40;84.10;;;;;;4902504;29;20682;-90
2022/03/12 06:50:52;;;;;;;13.73;5.53;;;4.40;84.10;;;;;;4903420;29;20044;-91
2022/03/12 06:53:18;;;;;;;12.53;5.97;;;4.40;84.20;;;;;;4902452;29;20056;-91
2022/03/12 06:55:44;;;;;;;12.07;5.43;;;4.50;84.40;;;;;;4902264;29;20044;-87
2022/03/12 06:58:10;;;;;;;11.03;5.17;;;4.50;84.40;;;;;;4921200;29;20468;-93
2022/03/12 07:00:36;;;;;;;11.77;5.73;;;4.50;84.40;;;;;;4904042;29;20044;-94
2022/03/12 07:03:02;;;;;;;13.77;5.87;;;4.60;84.70;;;;;;4922923;29;20050;-95
2022/03/12 07:05:28;;;;;;;12.70;6.10;;;5.50;85.00;;;;;;4907102;29;20416;-95
2022/03/12 07:07:54;;;;;;;11.87;5.47;;;4.70;84.60;;;;;;4921807;29;20037;-92
2022/03/12 07:10:20;;;;;;;13.13;5.77;;;4.80;84.70;;;;;;4905582;29;20066;-93
2022/03/12 07:12:47;;;;;;;13.37;5.63;;;4.90;85.20;;;;;;4902620;29;20036;-93
2022/03/12 07:15:14;;;;;;;13.20;5.87;;;5.00;84.80;;;;;;4904645;29;20103;-93
2022/03/12 07:17:43;;;;;;;11.03;5.40;;;5.10;84.90;;;;;;4908627;29;20471;-94
2022/03/12 07:20:10;;;;;;;14.00;6.20;;;5.20;84.40;;;;;;4905838;29;20489;-95
2022/03/12 07:22:36;;;;;;;11.90;5.90;;;5.30;84.10;;;;;;4906393;29;20477;-91
2022/03/12 07:25:02;;;;;;;12.90;6.20;;;5.50;84.00;;;;;;4905018;29;20492;-90
2022/03/12 07:27:28;;;;;;;13.67;5.83;;;5.60;83.20;;;;;;4901690;29;20052;-90
2022/03/12 07:29:54;;;;;;;12.83;6.17;;;5.70;83.60;;;;;;4920211;29;20059;-92
2022/03/12 07:32:20;;;;;;;12.70;6.20;;;5.70;83.20;;;;;;4902369;29;20048;-92
2022/03/12 07:34:47;;;;;;;13.57;6.20;;;5.80;83.00;;;;;;4903784;29;20052;-94
2022/03/12 07:37:20;;;;;;;15.00;6.13;;;5.80;82.60;;;;;;4902566;29;20088;-93
2022/03/12 07:39:47;;;;;;;13.40;6.38;;;5.90;82.30;;;;;;4901540;29;20048;-93
2022/03/12 07:42:13;;;;;;;14.00;6.07;;;5.90;82.40;;;;;;4901100;29;20040;-92
2022/03/12 07:44:39;;;;;;;13.27;5.80;;;5.80;82.30;;;;;;4901382;29;20398;-93
2022/03/12 07:47:06;;;;;;;12.93;6.23;;;5.80;82.50;;;;;;4918693;29;20065;-93
2022/03/12 07:49:31;;;;;;;16.50;6.80;;;5.80;82.60;;;;;;4901611;29;20076;-94
2022/03/12 07:51:57;;;;;;;12.93;6.23;;;5.80;82.70;;;;;;4904207;29;20059;-94
2022/03/12 07:54:23;;;;;;;13.77;6.10;;;5.80;82.70;;;;;;4901878;29;20048;-96
2022/03/12 07:56:49;;;;;;;13.20;6.23;;;5.90;82.60;;;;;;4902223;29;20079;-94
2022/03/12 07:59:15;;;;;;;14.13;6.07;;;6.00;82.20;;;;;;4905939;29;20048;-92
2022/03/12 08:01:40;;;;;;;15.27;6.40;;;6.10;82.40;;;;;;4906303;29;20055;-94
2022/03/12 08:04:06;;;;;;;12.13;5.80;;;6.30;82.10;;;;;;4909082;29;20624;-92
2022/03/12 08:06:33;;;;;;;14.70;6.70;;;6.40;82.10;;;;;;4912097;29;20055;-93
2022/03/12 08:09:00;;;;;;;12.60;6.27;;;6.50;81.70;;;;;;4911737;29;20075;-92
2022/03/12 08:11:29;;;;;;;17.53;6.73;;;6.70;81.70;;;;;;4901265;29;20135;-92
2022/03/12 08:14:01;;;;;;;13.70;6.37;;;6.80;81.60;;;;;;4905793;29;20400;-96
2022/03/12 08:16:28;;;;;;;14.43;6.10;;;6.90;81.40;;;;;;4906770;29;20052;-94
2022/03/12 08:18:54;;;;;;;13.45;6.20;;;7.00;81.50;;;;;;4907789;29;20072;-95
2022/03/12 08:21:24;;;;;;;12.60;6.50;;;7.40;81.30;;;;;;4928151;29;20051;-95
2022/03/12 08:23:50;;;;;;;14.60;6.47;;;7.30;81.10;;;;;;4910788;29;20104;-95
2022/03/12 08:26:16;;;;;;;14.52;6.38;;;8.00;82.40;;;;;;4908782;29;20143;-94
2022/03/12 08:28:45;;;;;;;13.18;6.30;;;7.10;82.00;;;;;;4920774;29;20028;-94
2022/03/12 08:31:11;;;;;;;12.20;6.30;;;7.70;81.90;;;;;;4911539;29;20579;-93
2022/03/12 08:33:37;;;;;;;15.98;6.35;;;8.80;82.50;;;;;;4908577;29;20056;-95
2022/03/12 08:36:06;;;;;;;14.40;6.78;;;7.70;81.60;;;;;;4906314;29;20052;-96
2022/03/12 08:38:34;;;;;;;14.93;6.47;;;7.80;81.10;;;;;;4919495;29;20472;-95
2022/03/12 08:41:01;;;;;;;13.68;6.50;;;7.60;81.50;;;;;;4904085;29;20044;-96
2022/03/12 08:43:28;;;;;;;12.60;6.00;;;6.40;81.20;;;;;;4912231;29;20056;-95
2022/03/12 08:45:56;;;;;;;14.15;6.53;;;8.00;82.50;;;;;;4907297;29;20044;-96
2022/03/12 08:48:22;;;;;;;14.23;6.22;;;8.10;82.20;;;;;;4926451;29;20047;-96
2022/03/12 08:50:49;;;;;;;14.23;6.80;;;8.30;82.50;;;;;;4892269;29;20048;-95
2022/03/12 08:53:16;;;;;;;13.65;6.45;;;8.40;82.70;;;;;;4923732;29;20385;-96
2022/03/12 08:55:45;;;;;;;13.88;7.10;;;7.70;82.60;;;;;;4917737;29;20062;-96
2022/03/12 08:58:28;;;;;;;14.65;6.63;;;8.70;82.50;;;;;;4904123;29;20052;-95
2022/03/12 09:01:06;;;;;;;13.48;6.55;;;8.50;82.00;;;;;;4923508;29;20103;-95
2022/03/12 09:03:37;;;;;;;16.15;7.38;;;9.80;82.70;;;;;;4916646;29;20041;-96
2022/03/12 09:06:04;;;;;;;15.05;6.95;;;9.00;82.30;;;;;;4917676;29;20028;-96
2022/03/12 09:08:31;;;;;;;15.05;6.90;;;8.90;82.80;;;;;;4913701;29;20137;-94
2022/03/12 09:11:17;;;;;;;14.73;7.40;;;9.80;83.20;;;;;;4911001;29;20076;-96
2022/03/12 09:13:43;;;;;;;15.27;7.78;;;9.30;83.10;;;;;;4909199;29;20030;-95
2022/03/12 09:16:09;;;;;;;15.88;7.22;;;;;;;;;;4903063;29;20053;-94
2022/03/12 09:18:35;;;;;;;15.05;7.75;;;9.50;83.70;;;;;;4917951;29;20571;-94
2022/03/12 09:21:00;;;;;;;13.70;7.18;;;9.50;84.90;;;;;;4902769;29;20036;-93
2022/03/12 09:23:28;;;;;;;14.45;7.35;;;9.50;85.10;;;;;;4905843;29;20052;-94
2022/03/12 09:25:54;;;;;;;16.40;7.78;;;8.90;85.00;;;;;;4914473;29;20044;-94
2022/03/12 09:28:22;;;;;;;14.68;7.68;;;10.50;86.50;;;;;;4910453;29;20048;-94
2022/03/12 09:31:00;;;;;;;14.55;6.93;;;10.70;86.70;;;;;;4913753;29;20096;-94
2022/03/12 09:33:52;;;;;;;13.40;6.97;;;11.50;87.70;;;;;;4914189;29;20088;-96
2022/03/12 09:36:35;;;;;;;14.43;7.13;;;10.60;87.40;;;;;;4902607;29;20166;-93
2022/03/12 09:39:07;;;;;;;15.07;7.35;;;10.70;87.70;;;;;;4900769;29;20052;-93
2022/03/12 09:41:34;;;;;;;15.32;7.32;;;10.70;87.80;;;;;;4900259;29;20048;-94
2022/03/12 09:44:01;;;;;;;17.67;8.10;;;11.50;88.90;;;;;;4917369;29;20085;-94
2022/03/12 09:46:45;;;;;;;16.77;7.63;;;10.60;88.50;;;;;;4903112;29;20055;-93
2022/03/12 09:49:27;;;;;;;13.45;7.57;;;12.00;89.60;;;;;;4907070;29;20072;-95
2022/03/12 09:51:53;;;;;;;13.75;7.47;;;11.00;89.00;;;;;;4909560;29;20048;-96
2022/03/12 09:54:22;;;;;;;19.73;7.45;;;10.80;88.80;;;;;;4909478;29;20142;-96
2022/03/12 09:56:55;;;;;;;13.63;7.10;;;11.80;89.60;;;;;;4906604;29;20045;-95
2022/03/12 09:59:38;;;;;;;14.60;7.50;;;11.10;89.70;;;;;;4926596;29;20063;-94
2022/03/12 10:02:04;;;;;;;15.50;8.00;;;11.20;89.60;;;;;;4907697;29;20040;-92
2022/03/12 10:04:36;;;;;;;14.77;7.72;;;11.40;90.10;;;;;;4905179;29;20133;-94
2022/03/12 10:09:54;;;;;;;16.23;8.10;;;11.70;90.20;;;;;;4925993;29;20034;-95
2022/03/12 10:12:53;;;;;;;14.50;7.55;;;12.80;90.50;;;;;;4908722;29;20127;-94
2022/03/12 10:15:19;;;;;;;15.38;8.10;;;12.00;90.80;;;;;;4904751;29;20048;-94
2022/03/12 10:17:47;;;;;;;16.90;7.85;;;12.10;90.60;;;;;;4904684;29;20066;-95
2022/03/12 10:20:13;;;;;;;13.32;7.45;;;12.30;90.80;;;;;;4904059;29;20492;-94
2022/03/12 10:22:39;;;;;;;14.98;7.80;;;12.50;91.10;;;;;;4905314;29;20060;-94
2022/03/12 10:25:08;;;;;;;15.52;8.25;;;12.70;91.20;;;;;;4894086;29;20135;-96
2022/03/12 10:27:39;;;;;;;14.93;8.52;;;12.80;91.70;;;;;;4930342;29;20047;-96
2022/03/12 10:30:08;;;;;;;15.38;7.95;;;13.60;91.90;;;;;;4922610;29;20079;-95
2022/03/12 10:32:44;;;;;;;13.02;7.60;;;13.10;91.90;;;;;;4903953;29;20059;-93
2022/03/12 10:35:12;;;;;;;14.80;8.20;;;13.30;92.10;;;;;;4906444;29;20107;-94
2022/03/12 10:37:38;;;;;;;16.02;8.93;;;13.30;92.10;;;;;;4903447;29;20062;-94
2022/03/12 10:40:20;;;;;;;17.58;9.07;;;13.40;92.40;;;;;;4903241;29;20056;-95
2022/03/12 10:42:52;;;;;;;15.30;8.32;;;13.50;91.80;;;;;;4903245;29;20047;-93
2022/03/12 10:45:21;;;;;;;15.27;8.93;;;13.80;92.20;;;;;;4919846;29;20048;-93
2022/03/12 10:47:55;;;;;;;14.30;8.75;;;14.20;92.20;;;;;;4903942;29;20056;-94
2022/03/12 10:50:25;;;;;;;;;;;14.00;92.20;;;;;;4920298;29;20059;-94
2022/03/12 10:52:57;;;;;;;16.88;8.50;;;14.20;91.90;;;;;;4918411;29;19929;-95
2022/03/12 10:55:32;;;;;;;15.07;7.72;;;14.10;92.10;;;;;;4933297;29;20052;-94
2022/03/12 10:58:21;;;;;;;13.77;8.05;;;14.30;92.60;;;;;;4905316;29;20044;-93
2022/03/12 11:00:48;;;;;;;14.27;7.88;;;14.50;92.80;;;;;;4903961;29;20123;-95
2022/03/12 11:03:20;;;;;;;15.15;7.80;;;14.60;93.20;;;;;;4903245;29;20454;-93
2022/03/12 11:05:46;;;;;;;14.82;7.57;;;14.60;93.90;;;;;;4902776;29;20136;-93
2022/03/12 11:08:20;;;;;;;13.35;7.22;;;14.60;94.10;;;;;;4921633;29;20040;-92
2022/03/12 11:10:58;;;;;;;;;;;14.50;94.10;;;;;;4905561;29;20059;-93
2022/03/12 11:13:58;;;;;;;14.32;7.55;;;14.40;95.10;;;;;;4903155;29;20008;-94
2022/03/12 11:16:28;;;;;;;13.88;7.75;;;14.60;95.70;;;;;;4919688;29;20056;-92
2022/03/12 11:18:53;;;;;;;13.07;6.97;;;15.10;95.70;;;;;;4903007;29;20397;-93
2022/03/12 11:21:51;;;;;;;;;;;;;;;;;;;;;
2022/03/12 11:25:05;;;;;;;14.65;7.80;;;15.10;95.40;;;;;;4914614;29;20094;-93
2022/03/12 11:27:49;;;;;;;12.82;6.95;;;15.30;95.50;;;;;;4874467;29;20121;-93
2022/03/12 11:30:19;;;;;;;12.38;7.07;;;16.30;95.20;;;;;;4903328;29;20126;-94
2022/03/12 11:33:26;;;;;;;14.38;8.20;;;14.90;94.90;;;;;;4902247;29;20092;-93
2022/03/12 11:36:01;;;;;;;14.27;7.47;;;15.00;95.30;;;;;;4902061;29;20527;-91
2022/03/12 11:39:04;;;;;;;12.20;7.32;;;14.90;95.30;;;;;;4907058;29;20040;-95
2022/03/12 11:41:55;;;;;;;15.55;8.32;;;16.60;95.10;;;;;;4906464;29;20044;-95
2022/03/12 11:44:21;;;;;;;14.23;7.43;;;15.50;95.50;;;;;;4889848;29;20041;-94
2022/03/12 11:47:02;;;;;;;12.45;7.32;;;16.50;95.70;;;;;;4901837;29;20511;-94
2022/03/12 11:49:38;;;;;;;14.18;7.85;;;16.80;95.00;;;;;;4902048;29;20075;-93
2022/03/12 11:52:05;;;;;;;15.18;7.70;;;15.10;95.00;;;;;;4901338;29;20511;-92
2022/03/12 11:54:35;;;;;;;15.57;7.85;;;15.90;95.00;;;;;;4900545;29;20048;-93
2022/03/12 11:57:03;;;;;;;13.50;7.43;;;15.30;95.20;;;;;;4918606;29;20052;-95
2022/03/12 11:59:29;;;;;;;13.88;8.15;;;15.90;95.20;;;;;;4918074;29;20047;-94
2022/03/12 12:02:01;;;;;;;14.02;7.80;;;16.30;94.80;;;;;;4901178;29;20048;-95
2022/03/12 12:04:34;;;;;;;13.27;8.30;;;16.40;94.90;;;;;;4901222;29;20051;-94
2022/03/12 12:07:01;;;;;;;15.20;8.20;;;16.30;95.50;;;;;;4902608;29;20052;-91
2022/03/12 12:09:29;;;;;;;12.77;7.80;;;15.40;95.40;;;;;;4901792;29;20048;-91
2022/03/12 12:11:55;;;;;;;12.65;7.72;;;15.40;95.40;;;;;;4903296;29;20108;-94
2022/03/12 12:14:30;;;;;;;13.23;7.80;;;16.20;95.60;;;;;;4892187;29;20072;-96
2022/03/12 12:16:58;;;;;;;13.00;8.18;;;15.20;95.70;;;;;;4910775;29;20052;-96
2022/03/12 12:19:26;;;;;;;12.75;7.68;;;16.30;96.00;;;;;;4893439;29;20396;-96
2022/03/12 12:22:07;;;;;;;13.63;7.47;;;15.80;95.80;;;;;;4909210;29;20150;-96
2022/03/12 12:24:44;;;;;;;12.52;6.97;;;16.10;95.70;;;;;;4899215;29;20047;-96
2022/03/12 12:27:13;;;;;;;12.48;7.75;;;16.20;95.90;;;;;;4929293;29;20118;-96
2022/03/12 12:29:59;;;;;;;16.13;7.25;;;16.70;95.10;;;;;;4905477;29;20048;-96
2022/03/12 12:36:13;;;;;;;13.68;7.20;;;16.60;95.50;;;;;;4928235;29;20131;-96
2022/03/12 12:39:08;;;;;;;15.10;7.10;;;15.30;95.20;;;;;;4910363;29;20055;-96
2022/03/12 12:41:54;;;;;;;14.07;7.55;;;15.80;95.80;;;;;;4904105;29;20055;-96
2022/03/12 12:44:45;;;;;;;12.88;7.88;;;15.00;95.50;;;;;;4902935;29;20052;-96
2022/03/12 12:47:18;;;;;;;14.90;7.75;;;15.40;95.60;;;;;;4920831;29;20048;-96
2022/03/12 12:50:20;;;;;;;13.03;7.90;;;15.60;95.60;;;;;;4904386;29;20039;-96
2022/03/12 12:53:49;;;;;;;13.60;7.32;;;15.70;96.00;;;;;;4826782;29;20464;-95
2022/03/12 12:56:35;;;;;;;13.07;7.68;;;15.00;95.90;;;;;;4807400;29;20141;-96
2022/03/12 12:59:08;;;;;;;15.70;7.93;;;15.40;96.30;;;;;;4893687;29;20060;-94
2022/03/12 13:01:47;;;;;;;13.65;7.60;;;15.90;96.50;;;;;;4910538;29;20054;-96
2022/03/12 13:04:19;;;;;;;13.02;6.90;;;16.00;96.80;;;;;;4907631;29;20507;-96